First I — 3ESJ5 — position and weather

sailwx.info

Track history (hours):
 
Tides and Currents Weather Stations Pressure Air Temp Water Temp Dewpoint Dewpoint Depression Visibility Wind Speed Wind Dir Waves Ship Positions

First I

Last reported at 2018-Feb-17 06:13 UTC. Time now 2018-Feb-19 06:22 UTC.
Position N 01°13' E 103°29'.

Length 190 m; draft 13 m.

Type: Cargo ship. MMSI: 370317000.

Date/timePositionNaut miles runAvg speedWind from/ knotsBaromVisibWave heightAir tempDewpointWater temp
2018-Feb-17 06:13N 01°13' E 103°29'210.1
2018-Feb-17 05:59N 01°13' E 103°32'510.1
2018-Feb-17 05:30N 01°11' E 103°36'5 9.4
2018-Feb-17 04:58N 01°10' E 103°41'4 8.4
2018-Feb-17 04:30N 01°09' E 103°45'510.2
2018-Feb-17 04:00N 01°11' E 103°50'5 9.8
2018-Feb-17 03:30N 01°13' E 103°54'4 9.0
2018-Feb-17 03:00N 01°15' E 103°58'2 1.0
2018-Feb-17 00:56N 01°17' E 103°58'0 0.0
2018-Feb-16 23:20N 01°17' E 103°59'0 0.0
2018-Feb-16 22:38N 01°17' E 103°59'0 0.0
2018-Feb-16 22:23N 01°17' E 103°59'0 0.0
2018-Feb-16 15:44N 01°17' E 103°58'1 2.0
2018-Feb-16 15:27N 01°17' E 103°58'1 3.1
2018-Feb-16 15:00N 01°16' E 103°59'  
Track history (hours):
 
Tides and Currents Weather Stations Pressure Air Temp Water Temp Dewpoint Dewpoint Depression Visibility Wind Speed Wind Dir Waves Ship Positions

First I

Last reported at 2018-Feb-17 06:13 UTC. Time now 2018-Feb-19 06:22 UTC.
Position N 01°13' E 103°29'.

Length 190 m; draft 13 m.

Type: Cargo ship. MMSI: 370317000.

Date/timePositionNaut miles runAvg speedWind from/ knotsBaromVisibWave heightAir tempDewpointWater temp
2018-Feb-17 06:13N 01°13' E 103°29'210.1
2018-Feb-17 05:59N 01°13' E 103°32'510.1
2018-Feb-17 05:30N 01°11' E 103°36'5 9.4
2018-Feb-17 04:58N 01°10' E 103°41'4 8.4
2018-Feb-17 04:30N 01°09' E 103°45'510.2
2018-Feb-17 04:00N 01°11' E 103°50'5 9.8
2018-Feb-17 03:30N 01°13' E 103°54'4 9.0
2018-Feb-17 03:00N 01°15' E 103°58'2 1.0
2018-Feb-17 00:56N 01°17' E 103°58'0 0.0
2018-Feb-16 23:20N 01°17' E 103°59'0 0.0
2018-Feb-16 22:38N 01°17' E 103°59'0 0.0
2018-Feb-16 22:23N 01°17' E 103°59'0 0.0
2018-Feb-16 15:44N 01°17' E 103°58'1 2.0
2018-Feb-16 15:27N 01°17' E 103°58'1 3.1
2018-Feb-16 15:00N 01°16' E 103°59'  

Dump ship's entire track history